sensor_id;sensor_type;location;lat;lon;timestamp;pressure;altitude;pressure_sealevel;temperature;humidity
77159;BME280;66129;45.890;13.714;2023-11-19T00:01:31;101702.19;;;4.05;100.00
77159;BME280;66129;45.890;13.714;2023-11-19T00:03:58;101693.97;;;4.23;100.00
77159;BME280;66129;45.890;13.714;2023-11-19T00:06:23;101693.31;;;4.40;100.00
77159;BME280;66129;45.890;13.714;2023-11-19T00:08:50;101696.81;;;4.42;100.00
77159;BME280;66129;45.890;13.714;2023-11-19T00:11:15;101700.66;;;4.50;100.00
77159;BME280;66129;45.890;13.714;2023-11-19T00:13:41;101702.09;;;4.59;100.00
77159;BME280;66129;45.890;13.714;2023-11-19T00:16:07;101705.06;;;4.67;100.00
77159;BME280;66129;45.890;13.714;2023-11-19T00:18:33;101692.44;;;4.68;100.00
77159;BME280;66129;45.890;13.714;2023-11-19T00:20:58;101698.41;;;4.69;100.00
77159;BME280;66129;45.890;13.714;2023-11-19T00:23:24;101715.47;;;4.57;100.00
77159;BME280;66129;45.890;13.714;2023-11-19T00:25:49;101717.03;;;4.55;100.00
77159;BME280;66129;45.890;13.714;2023-11-19T00:28:15;101706.97;;;4.42;100.00
77159;BME280;66129;45.890;13.714;2023-11-19T00:30:40;101695.72;;;4.24;100.00
77159;BME280;66129;45.890;13.714;2023-11-19T00:33:06;101704.25;;;4.12;100.00
77159;BME280;66129;45.890;13.714;2023-11-19T00:35:31;101704.59;;;4.03;100.00
77159;BME280;66129;45.890;13.714;2023-11-19T00:37:58;101709.25;;;4.10;100.00
77159;BME280;66129;45.890;13.714;2023-11-19T00:40:23;101698.78;;;4.19;100.00
77159;BME280;66129;45.890;13.714;2023-11-19T00:42:49;101705.09;;;4.25;100.00
77159;BME280;66129;45.890;13.714;2023-11-19T00:45:15;101703.06;;;4.20;100.00
77159;BME280;66129;45.890;13.714;2023-11-19T00:47:40;101714.00;;;4.19;100.00
77159;BME280;66129;45.890;13.714;2023-11-19T00:50:07;101711.06;;;4.26;100.00
77159;BME280;66129;45.890;13.714;2023-11-19T00:52:35;101709.19;;;4.23;100.00
77159;BME280;66129;45.890;13.714;2023-11-19T00:55:01;101690.31;;;4.18;100.00
77159;BME280;66129;45.890;13.714;2023-11-19T00:57:26;101711.38;;;4.17;100.00
77159;BME280;66129;45.890;13.714;2023-11-19T00:59:52;101711.25;;;4.01;100.00
77159;BME280;66129;45.890;13.714;2023-11-19T01:02:17;101706.44;;;3.78;100.00
77159;BME280;66129;45.890;13.714;2023-11-19T01:04:43;101696.56;;;3.55;100.00
77159;BME280;66129;45.890;13.714;2023-11-19T01:07:09;101710.81;;;3.40;100.00
77159;BME280;66129;45.890;13.714;2023-11-19T01:09:38;101703.41;;;3.30;100.00
77159;BME280;66129;45.890;13.714;2023-11-19T01:12:04;101696.59;;;3.29;100.00
77159;BME280;66129;45.890;13.714;2023-11-19T01:14:30;101689.41;;;3.23;100.00
77159;BME280;66129;45.890;13.714;2023-11-19T01:16:56;101677.50;;;3.22;100.00
77159;BME280;66129;45.890;13.714;2023-11-19T01:19:22;101666.00;;;3.27;100.00
77159;BME280;66129;45.890;13.714;2023-11-19T01:21:51;101656.22;;;3.45;100.00
77159;BME280;66129;45.890;13.714;2023-11-19T01:24:16;101654.06;;;3.51;100.00
77159;BME280;66129;45.890;13.714;2023-11-19T01:26:43;101637.06;;;3.63;100.00
77159;BME280;66129;45.890;13.714;2023-11-19T01:29:19;101649.09;;;3.80;100.00
77159;BME280;66129;45.890;13.714;2023-11-19T01:31:46;101638.56;;;3.87;100.00
77159;BME280;66129;45.890;13.714;2023-11-19T01:34:16;101650.09;;;3.97;100.00
77159;BME280;66129;45.890;13.714;2023-11-19T01:36:42;101642.69;;;4.00;100.00
77159;BME280;66129;45.890;13.714;2023-11-19T01:39:07;101655.63;;;4.04;100.00
77159;BME280;66129;45.890;13.714;2023-11-19T01:41:36;101643.91;;;4.06;100.00
77159;BME280;66129;45.890;13.714;2023-11-19T01:44:01;101641.63;;;4.11;100.00
77159;BME280;66129;45.890;13.714;2023-11-19T01:46:27;101653.34;;;4.09;100.00
77159;BME280;66129;45.890;13.714;2023-11-19T01:48:54;101633.69;;;4.05;100.00
77159;BME280;66129;45.890;13.714;2023-11-19T01:51:21;101638.84;;;4.06;100.00
77159;BME280;66129;45.890;13.714;2023-11-19T01:53:47;101637.00;;;4.04;100.00
77159;BME280;66129;45.890;13.714;2023-11-19T01:56:15;101641.13;;;4.02;100.00
77159;BME280;66129;45.890;13.714;2023-11-19T01:58:43;101646.59;;;3.95;100.00
77159;BME280;66129;45.890;13.714;2023-11-19T02:01:09;101656.44;;;3.90;100.00
77159;BME280;66129;45.890;13.714;2023-11-19T02:03:36;101641.75;;;3.85;100.00
77159;BME280;66129;45.890;13.714;2023-11-19T02:06:03;101641.75;;;3.85;100.00
77159;BME280;66129;45.890;13.714;2023-11-19T02:08:29;101636.84;;;3.73;100.00
77159;BME280;66129;45.890;13.714;2023-11-19T02:10:55;101640.63;;;3.52;100.00
77159;BME280;66129;45.890;13.714;2023-11-19T02:13:23;101650.56;;;3.49;100.00
77159;BME280;66129;45.890;13.714;2023-11-19T02:15:50;101635.38;;;3.36;100.00
77159;BME280;66129;45.890;13.714;2023-11-19T02:18:26;101617.50;;;3.21;100.00
77159;BME280;66129;45.890;13.714;2023-11-19T02:20:58;101617.22;;;3.03;100.00
77159;BME280;66129;45.890;13.714;2023-11-19T02:23:28;101620.44;;;3.01;100.00
77159;BME280;66129;45.890;13.714;2023-11-19T02:26:01;101633.88;;;3.13;100.00
77159;BME280;66129;45.890;13.714;2023-11-19T02:28:27;101613.09;;;3.18;100.00
77159;BME280;66129;45.890;13.714;2023-11-19T02:30:53;101614.97;;;3.21;100.00
77159;BME280;66129;45.890;13.714;2023-11-19T02:33:18;101629.25;;;3.33;100.00
77159;BME280;66129;45.890;13.714;2023-11-19T02:35:44;101624.06;;;3.31;100.00
77159;BME280;66129;45.890;13.714;2023-11-19T02:38:09;101589.97;;;3.12;100.00
77159;BME280;66129;45.890;13.714;2023-11-19T02:40:36;101593.16;;;3.10;100.00
77159;BME280;66129;45.890;13.714;2023-11-19T02:43:01;101595.94;;;3.00;100.00
77159;BME280;66129;45.890;13.714;2023-11-19T02:45:27;101594.34;;;3.02;100.00
77159;BME280;66129;45.890;13.714;2023-11-19T02:47:53;101587.25;;;2.96;100.00
77159;BME280;66129;45.890;13.714;2023-11-19T02:50:20;101578.59;;;2.93;100.00
77159;BME280;66129;45.890;13.714;2023-11-19T02:52:56;101582.56;;;3.02;100.00
77159;BME280;66129;45.890;13.714;2023-11-19T02:55:22;101571.53;;;3.02;100.00
77159;BME280;66129;45.890;13.714;2023-11-19T02:57:49;101566.47;;;3.15;100.00
77159;BME280;66129;45.890;13.714;2023-11-19T03:00:24;101567.03;;;3.24;100.00
77159;BME280;66129;45.890;13.714;2023-11-19T03:02:53;101559.28;;;3.35;100.00
77159;BME280;66129;45.890;13.714;2023-11-19T03:05:26;101555.47;;;3.41;100.00
77159;BME280;66129;45.890;13.714;2023-11-19T03:07:52;101545.69;;;3.47;100.00
77159;BME280;66129;45.890;13.714;2023-11-19T03:10:17;101556.03;;;3.50;100.00
77159;BME280;66129;45.890;13.714;2023-11-19T03:12:44;101545.09;;;3.51;100.00
77159;BME280;66129;45.890;13.714;2023-11-19T03:15:11;101541.06;;;3.55;100.00
77159;BME280;66129;45.890;13.714;2023-11-19T03:17:40;101544.56;;;3.57;100.00
77159;BME280;66129;45.890;13.714;2023-11-19T03:20:07;101544.41;;;3.54;100.00
77159;BME280;66129;45.890;13.714;2023-11-19T03:22:36;101538.28;;;3.50;100.00
77159;BME280;66129;45.890;13.714;2023-11-19T03:25:02;101549.06;;;3.61;100.00
77159;BME280;66129;45.890;13.714;2023-11-19T03:27:27;101542.31;;;3.61;100.00
77159;BME280;66129;45.890;13.714;2023-11-19T03:29:53;101546.00;;;3.66;100.00
77159;BME280;66129;45.890;13.714;2023-11-19T03:32:18;101538.91;;;3.61;100.00
77159;BME280;66129;45.890;13.714;2023-11-19T03:34:45;101525.75;;;3.39;100.00
77159;BME280;66129;45.890;13.714;2023-11-19T03:37:10;101505.28;;;3.22;100.00
77159;BME280;66129;45.890;13.714;2023-11-19T03:39:36;101510.16;;;3.19;100.00
77159;BME280;66129;45.890;13.714;2023-11-19T03:42:01;101536.84;;;3.14;100.00
77159;BME280;66129;45.890;13.714;2023-11-19T03:44:28;101536.22;;;3.03;100.00
77159;BME280;66129;45.890;13.714;2023-11-19T03:46:53;101537.44;;;3.10;100.00
77159;BME280;66129;45.890;13.714;2023-11-19T03:49:19;101532.78;;;3.03;100.00
77159;BME280;66129;45.890;13.714;2023-11-19T03:51:45;101541.84;;;2.99;100.00
77159;BME280;66129;45.890;13.714;2023-11-19T03:54:10;101550.44;;;3.01;100.00
77159;BME280;66129;45.890;13.714;2023-11-19T03:56:36;101545.69;;;2.93;100.00
77159;BME280;66129;45.890;13.714;2023-11-19T03:59:02;101559.13;;;2.92;100.00
77159;BME280;66129;45.890;13.714;2023-11-19T04:01:28;101559.19;;;2.93;100.00
77159;BME280;66129;45.890;13.714;2023-11-19T04:03:53;101553.34;;;2.94;100.00
77159;BME280;66129;45.890;13.714;2023-11-19T04:06:21;101552.56;;;2.95;100.00
77159;BME280;66129;45.890;13.714;2023-11-19T04:08:46;101548.41;;;2.96;100.00
77159;BME280;66129;45.890;13.714;2023-11-19T04:11:11;101535.94;;;2.99;100.00
77159;BME280;66129;45.890;13.714;2023-11-19T04:13:37;101532.44;;;2.97;100.00
77159;BME280;66129;45.890;13.714;2023-11-19T04:16:03;101538.47;;;2.99;100.00
77159;BME280;66129;45.890;13.714;2023-11-19T04:18:29;101545.03;;;3.10;100.00
77159;BME280;66129;45.890;13.714;2023-11-19T04:20:54;101527.09;;;3.20;100.00
77159;BME280;66129;45.890;13.714;2023-11-19T04:23:20;101530.53;;;3.34;100.00
77159;BME280;66129;45.890;13.714;2023-11-19T04:25:45;101535.00;;;3.38;100.00
77159;BME280;66129;45.890;13.714;2023-11-19T04:28:11;101531.25;;;3.32;100.00
77159;BME280;66129;45.890;13.714;2023-11-19T04:30:36;101537.53;;;3.38;100.00
77159;BME280;66129;45.890;13.714;2023-11-19T04:33:03;101524.69;;;3.35;100.00
77159;BME280;66129;45.890;13.714;2023-11-19T04:35:28;101527.78;;;3.44;100.00
77159;BME280;66129;45.890;13.714;2023-11-19T04:37:54;101541.59;;;3.49;100.00
77159;BME280;66129;45.890;13.714;2023-11-19T04:40:23;101546.25;;;3.56;100.00
77159;BME280;66129;45.890;13.714;2023-11-19T04:42:49;101525.34;;;3.60;100.00
77159;BME280;66129;45.890;13.714;2023-11-19T04:45:14;101528.84;;;3.62;100.00
77159;BME280;66129;45.890;13.714;2023-11-19T04:47:42;101539.94;;;3.64;100.00
77159;BME280;66129;45.890;13.714;2023-11-19T04:50:07;101535.41;;;3.59;100.00
77159;BME280;66129;45.890;13.714;2023-11-19T04:52:38;101542.94;;;3.57;100.00
77159;BME280;66129;45.890;13.714;2023-11-19T04:55:06;101528.59;;;3.58;100.00
77159;BME280;66129;45.890;13.714;2023-11-19T04:57:32;101520.63;;;3.52;100.00
77159;BME280;66129;45.890;13.714;2023-11-19T04:59:58;101508.72;;;3.51;100.00
77159;BME280;66129;45.890;13.714;2023-11-19T05:02:24;101514.09;;;3.55;100.00
77159;BME280;66129;45.890;13.714;2023-11-19T05:04:49;101510.50;;;3.66;100.00
77159;BME280;66129;45.890;13.714;2023-11-19T05:07:15;101484.03;;;3.76;100.00
77159;BME280;66129;45.890;13.714;2023-11-19T05:09:40;101478.03;;;3.88;100.00
77159;BME280;66129;45.890;13.714;2023-11-19T05:12:06;101468.47;;;3.84;100.00
77159;BME280;66129;45.890;13.714;2023-11-19T05:14:35;101474.25;;;3.82;100.00
77159;BME280;66129;45.890;13.714;2023-11-19T05:17:00;101476.94;;;3.70;100.00
77159;BME280;66129;45.890;13.714;2023-11-19T05:19:26;101463.84;;;3.63;100.00
77159;BME280;66129;45.890;13.714;2023-11-19T05:21:51;101475.97;;;3.68;100.00
77159;BME280;66129;45.890;13.714;2023-11-19T05:24:17;101472.59;;;3.68;100.00
77159;BME280;66129;45.890;13.714;2023-11-19T05:26:43;101460.59;;;3.65;100.00
77159;BME280;66129;45.890;13.714;2023-11-19T05:29:08;101469.34;;;3.70;100.00
77159;BME280;66129;45.890;13.714;2023-11-19T05:31:34;101474.66;;;3.75;100.00
77159;BME280;66129;45.890;13.714;2023-11-19T05:33:59;101467.94;;;3.75;100.00
77159;BME280;66129;45.890;13.714;2023-11-19T05:36:25;101462.16;;;3.78;100.00
77159;BME280;66129;45.890;13.714;2023-11-19T05:38:50;101476.88;;;3.83;100.00
77159;BME280;66129;45.890;13.714;2023-11-19T05:41:16;101472.50;;;3.81;100.00
77159;BME280;66129;45.890;13.714;2023-11-19T05:43:41;101455.88;;;3.86;100.00
77159;BME280;66129;45.890;13.714;2023-11-19T05:46:07;101449.34;;;3.89;100.00
77159;BME280;66129;45.890;13.714;2023-11-19T05:48:32;101452.53;;;4.01;100.00
77159;BME280;66129;45.890;13.714;2023-11-19T05:50:58;101451.16;;;4.06;100.00
77159;BME280;66129;45.890;13.714;2023-11-19T05:53:24;101441.75;;;4.20;100.00
77159;BME280;66129;45.890;13.714;2023-11-19T05:55:50;101451.84;;;4.18;100.00
77159;BME280;66129;45.890;13.714;2023-11-19T05:58:24;101469.41;;;4.15;100.00
77159;BME280;66129;45.890;13.714;2023-11-19T06:00:51;101470.66;;;4.07;100.00
77159;BME280;66129;45.890;13.714;2023-11-19T06:03:17;101475.28;;;4.14;100.00
77159;BME280;66129;45.890;13.714;2023-11-19T06:05:46;101474.03;;;4.08;100.00
77159;BME280;66129;45.890;13.714;2023-11-19T06:08:12;101483.16;;;4.04;100.00
77159;BME280;66129;45.890;13.714;2023-11-19T06:10:42;101482.00;;;3.99;100.00
77159;BME280;66129;45.890;13.714;2023-11-19T06:13:08;101470.72;;;3.94;100.00
77159;BME280;66129;45.890;13.714;2023-11-19T06:15:35;101468.03;;;3.91;100.00
77159;BME280;66129;45.890;13.714;2023-11-19T06:18:02;101489.19;;;3.92;100.00
77159;BME280;66129;45.890;13.714;2023-11-19T06:20:32;101480.56;;;3.88;100.00
77159;BME280;66129;45.890;13.714;2023-11-19T06:22:57;101498.44;;;3.91;100.00
77159;BME280;66129;45.890;13.714;2023-11-19T06:25:23;101510.34;;;3.92;100.00
77159;BME280;66129;45.890;13.714;2023-11-19T06:27:49;101507.97;;;3.95;100.00
77159;BME280;66129;45.890;13.714;2023-11-19T06:30:15;101480.69;;;3.91;100.00
77159;BME280;66129;45.890;13.714;2023-11-19T06:32:41;101475.28;;;4.00;100.00
77159;BME280;66129;45.890;13.714;2023-11-19T06:35:07;101474.94;;;4.08;100.00
77159;BME280;66129;45.890;13.714;2023-11-19T06:37:33;101473.06;;;4.20;100.00
77159;BME280;66129;45.890;13.714;2023-11-19T06:39:59;101480.66;;;4.20;100.00
77159;BME280;66129;45.890;13.714;2023-11-19T06:42:24;101466.28;;;4.19;100.00
77159;BME280;66129;45.890;13.714;2023-11-19T06:44:50;101461.34;;;4.22;100.00
77159;BME280;66129;45.890;13.714;2023-11-19T06:47:17;101477.00;;;4.30;100.00
77159;BME280;66129;45.890;13.714;2023-11-19T06:49:44;101477.06;;;4.31;100.00
77159;BME280;66129;45.890;13.714;2023-11-19T06:52:09;101483.66;;;4.28;100.00
77159;BME280;66129;45.890;13.714;2023-11-19T06:54:35;101484.69;;;4.31;100.00
77159;BME280;66129;45.890;13.714;2023-11-19T06:57:01;101476.91;;;4.28;100.00
77159;BME280;66129;45.890;13.714;2023-11-19T06:59:26;101478.41;;;4.25;100.00
77159;BME280;66129;45.890;13.714;2023-11-19T07:01:52;101474.91;;;4.23;100.00
77159;BME280;66129;45.890;13.714;2023-11-19T07:04:17;101471.25;;;4.18;100.00
77159;BME280;66129;45.890;13.714;2023-11-19T07:06:42;101492.06;;;4.27;100.00
77159;BME280;66129;45.890;13.714;2023-11-19T07:09:08;101497.38;;;4.31;100.00
77159;BME280;66129;45.890;13.714;2023-11-19T07:11:40;101487.56;;;4.37;100.00
77159;BME280;66129;45.890;13.714;2023-11-19T07:14:07;101486.50;;;4.48;100.00
77159;BME280;66129;45.890;13.714;2023-11-19T07:16:34;101488.44;;;4.68;100.00
77159;BME280;66129;45.890;13.714;2023-11-19T07:19:00;101477.13;;;4.77;100.00
77159;BME280;66129;45.890;13.714;2023-11-19T07:21:28;101477.78;;;4.89;100.00
77159;BME280;66129;45.890;13.714;2023-11-19T07:23:55;101463.72;;;4.96;100.00
77159;BME280;66129;45.890;13.714;2023-11-19T07:26:21;101466.34;;;5.13;100.00
77159;BME280;66129;45.890;13.714;2023-11-19T07:28:47;101469.13;;;5.34;100.00
77159;BME280;66129;45.890;13.714;2023-11-19T07:31:15;101435.75;;;5.43;100.00
77159;BME280;66129;45.890;13.714;2023-11-19T07:33:54;101463.41;;;5.87;100.00
77159;BME280;66129;45.890;13.714;2023-11-19T07:36:30;101455.59;;;6.00;100.00
77159;BME280;66129;45.890;13.714;2023-11-19T07:38:56;101455.53;;;5.98;100.00
77159;BME280;66129;45.890;13.714;2023-11-19T07:41:23;101443.66;;;5.99;100.00
77159;BME280;66129;45.890;13.714;2023-11-19T07:43:50;101436.63;;;6.11;100.00
77159;BME280;66129;45.890;13.714;2023-11-19T07:46:22;101444.09;;;6.43;100.00
77159;BME280;66129;45.890;13.714;2023-11-19T07:48:52;101430.25;;;6.55;100.00
77159;BME280;66129;45.890;13.714;2023-11-19T07:51:17;101460.03;;;6.75;100.00
77159;BME280;66129;45.890;13.714;2023-11-19T07:53:43;101471.06;;;6.93;100.00
77159;BME280;66129;45.890;13.714;2023-11-19T07:56:08;101452.56;;;6.97;100.00
77159;BME280;66129;45.890;13.714;2023-11-19T07:58:34;101466.44;;;7.80;100.00
77159;BME280;66129;45.890;13.714;2023-11-19T08:01:00;101452.63;;;8.37;100.00
77159;BME280;66129;45.890;13.714;2023-11-19T08:03:27;101471.81;;;9.15;96.24
77159;BME280;66129;45.890;13.714;2023-11-19T08:05:55;101463.59;;;9.70;89.46
77159;BME280;66129;45.890;13.714;2023-11-19T08:08:22;101483.06;;;10.15;87.41
77159;BME280;66129;45.890;13.714;2023-11-19T08:11:03;101500.84;;;10.37;87.99
77159;BME280;66129;45.890;13.714;2023-11-19T08:13:36;101468.00;;;10.25;81.76
77159;BME280;66129;45.890;13.714;2023-11-19T08:16:02;101486.75;;;10.23;84.62
77159;BME280;66129;45.890;13.714;2023-11-19T08:18:27;101487.31;;;10.14;87.32
77159;BME280;66129;45.890;13.714;2023-11-19T08:20:56;101494.06;;;9.88;92.79
77159;BME280;66129;45.890;13.714;2023-11-19T08:23:23;101489.00;;;9.66;93.64
77159;BME280;66129;45.890;13.714;2023-11-19T08:25:51;101486.25;;;9.36;95.87
77159;BME280;66129;45.890;13.714;2023-11-19T08:28:16;101473.94;;;9.26;94.97
77159;BME280;66129;45.890;13.714;2023-11-19T08:30:42;101479.03;;;9.25;96.82
77159;BME280;66129;45.890;13.714;2023-11-19T08:33:09;101475.66;;;9.26;99.53
77159;BME280;66129;45.890;13.714;2023-11-19T08:35:35;101479.63;;;9.41;99.78
77159;BME280;66129;45.890;13.714;2023-11-19T08:38:00;101490.88;;;9.46;100.00
77159;BME280;66129;45.890;13.714;2023-11-19T08:40:27;101467.78;;;9.21;100.00
77159;BME280;66129;45.890;13.714;2023-11-19T08:42:53;101467.63;;;9.17;100.00
77159;BME280;66129;45.890;13.714;2023-11-19T08:45:18;101478.03;;;9.21;100.00
77159;BME280;66129;45.890;13.714;2023-11-19T08:47:44;101464.63;;;9.28;100.00
77159;BME280;66129;45.890;13.714;2023-11-19T08:50:11;101461.84;;;9.22;100.00
77159;BME280;66129;45.890;13.714;2023-11-19T08:52:37;101509.41;;;9.39;100.00
77159;BME280;66129;45.890;13.714;2023-11-19T08:55:02;101496.41;;;9.35;100.00
77159;BME280;66129;45.890;13.714;2023-11-19T08:57:30;101502.19;;;9.29;100.00
77159;BME280;66129;45.890;13.714;2023-11-19T08:59:56;101482.09;;;9.16;100.00
77159;BME280;66129;45.890;13.714;2023-11-19T09:02:21;101466.38;;;9.06;100.00
77159;BME280;66129;45.890;13.714;2023-11-19T09:04:47;101471.94;;;9.18;100.00
77159;BME280;66129;45.890;13.714;2023-11-19T09:07:12;101476.25;;;9.42;100.00
77159;BME280;66129;45.890;13.714;2023-11-19T09:09:38;101483.88;;;9.66;100.00
77159;BME280;66129;45.890;13.714;2023-11-19T09:12:03;101485.81;;;9.96;100.00
77159;BME280;66129;45.890;13.714;2023-11-19T09:14:29;101471.44;;;9.99;99.53
77159;BME280;66129;45.890;13.714;2023-11-19T09:16:56;101473.47;;;10.09;95.78
77159;BME280;66129;45.890;13.714;2023-11-19T09:19:21;101461.41;;;10.32;97.93
77159;BME280;66129;45.890;13.714;2023-11-19T09:21:47;101453.88;;;10.36;98.70
77159;BME280;66129;45.890;13.714;2023-11-19T09:24:13;101461.94;;;10.48;91.36
77159;BME280;66129;45.890;13.714;2023-11-19T09:26:38;101455.44;;;10.59;88.92
77159;BME280;66129;45.890;13.714;2023-11-19T09:29:09;101450.47;;;10.64;85.57
77159;BME280;66129;45.890;13.714;2023-11-19T09:31:35;101455.66;;;10.67;82.04
77159;BME280;66129;45.890;13.714;2023-11-19T09:34:03;101449.44;;;10.59;83.14
77159;BME280;66129;45.890;13.714;2023-11-19T09:36:28;101470.88;;;10.61;84.74
77159;BME280;66129;45.890;13.714;2023-11-19T09:38:54;101462.75;;;10.47;82.18
77159;BME280;66129;45.890;13.714;2023-11-19T09:41:20;101440.13;;;10.34;83.04
77159;BME280;66129;45.890;13.714;2023-11-19T09:43:46;101450.94;;;10.52;84.86
77159;BME280;66129;45.890;13.714;2023-11-19T09:46:14;101456.06;;;10.52;84.46
77159;BME280;66129;45.890;13.714;2023-11-19T09:48:40;101437.75;;;10.40;87.45
77159;BME280;66129;45.890;13.714;2023-11-19T09:51:10;101451.81;;;10.53;88.48
77159;BME280;66129;45.890;13.714;2023-11-19T09:53:36;101449.03;;;10.45;90.04
77159;BME280;66129;45.890;13.714;2023-11-19T09:56:08;101455.06;;;10.47;90.65
77159;BME280;66129;45.890;13.714;2023-11-19T09:58:34;101445.88;;;10.54;84.22
77159;BME280;66129;45.890;13.714;2023-11-19T10:01:00;101447.00;;;10.63;82.56
77159;BME280;66129;45.890;13.714;2023-11-19T10:03:46;101431.09;;;10.73;83.14
77159;BME280;66129;45.890;13.714;2023-11-19T10:06:12;101416.72;;;10.80;80.42
77159;BME280;66129;45.890;13.714;2023-11-19T10:08:40;101404.75;;;10.80;80.74
77159;BME280;66129;45.890;13.714;2023-11-19T10:11:06;101388.41;;;10.75;81.41
77159;BME280;66129;45.890;13.714;2023-11-19T10:13:35;101395.34;;;11.10;81.74
77159;BME280;66129;45.890;13.714;2023-11-19T10:16:07;101378.19;;;11.38;81.88
77159;BME280;66129;45.890;13.714;2023-11-19T10:18:34;101394.31;;;11.64;79.95
77159;BME280;66129;45.890;13.714;2023-11-19T10:21:04;101393.19;;;11.54;74.45
77159;BME280;66129;45.890;13.714;2023-11-19T10:23:30;101401.47;;;11.46;74.17
77159;BME280;66129;45.890;13.714;2023-11-19T10:26:02;101369.66;;;11.39;75.57
77159;BME280;66129;45.890;13.714;2023-11-19T10:28:38;101400.09;;;11.57;79.10
77159;BME280;66129;45.890;13.714;2023-11-19T10:31:05;101399.22;;;11.56;80.02
77159;BME280;66129;45.890;13.714;2023-11-19T10:33:31;101391.34;;;11.50;76.49
77159;BME280;66129;45.890;13.714;2023-11-19T10:35:58;101376.09;;;11.55;78.78
77159;BME280;66129;45.890;13.714;2023-11-19T10:38:24;101364.41;;;11.67;79.98
77159;BME280;66129;45.890;13.714;2023-11-19T10:40:53;101351.66;;;11.70;78.76
77159;BME280;66129;45.890;13.714;2023-11-19T10:43:20;101358.13;;;11.90;81.40
77159;BME280;66129;45.890;13.714;2023-11-19T10:45:47;101367.56;;;11.91;81.96
77159;BME280;66129;45.890;13.714;2023-11-19T10:48:13;101373.78;;;12.01;78.64
77159;BME280;66129;45.890;13.714;2023-11-19T10:50:40;101370.50;;;12.06;78.68
77159;BME280;66129;45.890;13.714;2023-11-19T10:53:07;101369.53;;;12.03;80.37
77159;BME280;66129;45.890;13.714;2023-11-19T10:55:35;101360.00;;;11.97;80.47
77159;BME280;66129;45.890;13.714;2023-11-19T10:58:02;101368.84;;;12.08;83.95
77159;BME280;66129;45.890;13.714;2023-11-19T11:03:17;101325.69;;;11.94;84.15
77159;BME280;66129;45.890;13.714;2023-11-19T11:05:46;101320.72;;;12.03;85.39
77159;BME280;66129;45.890;13.714;2023-11-19T11:08:13;101302.66;;;12.00;86.99
77159;BME280;66129;45.890;13.714;2023-11-19T11:13:19;101303.25;;;13.09;86.15
77159;BME280;66129;45.890;13.714;2023-11-19T11:15:48;101298.34;;;13.74;81.09
77159;BME280;66129;45.890;13.714;2023-11-19T11:18:17;101284.25;;;14.09;79.19
77159;BME280;66129;45.890;13.714;2023-11-19T11:20:46;101303.97;;;14.69;73.50
77159;BME280;66129;45.890;13.714;2023-11-19T11:28:33;101276.03;;;15.10;73.89
77159;BME280;66129;45.890;13.714;2023-11-19T11:34:04;101311.59;;;14.57;74.49
77159;BME280;66129;45.890;13.714;2023-11-19T11:39:49;101303.38;;;14.22;75.00
77159;BME280;66129;45.890;13.714;2023-11-19T11:42:37;101297.09;;;14.71;74.93
77159;BME280;66129;45.890;13.714;2023-11-19T11:45:15;101301.03;;;15.15;74.35
77159;BME280;66129;45.890;13.714;2023-11-19T11:53:58;101293.69;;;15.54;69.91
77159;BME280;66129;45.890;13.714;2023-11-19T11:56:33;101310.16;;;15.71;72.33
77159;BME280;66129;45.890;13.714;2023-11-19T11:59:25;101293.84;;;15.73;74.05
77159;BME280;66129;45.890;13.714;2023-11-19T12:02:49;101289.44;;;15.63;71.07
77159;BME280;66129;45.890;13.714;2023-11-19T12:05:21;101276.53;;;15.68;70.05
77159;BME280;66129;45.890;13.714;2023-11-19T12:13:20;101292.13;;;15.78;70.68
77159;BME280;66129;45.890;13.714;2023-11-19T12:21:54;101272.34;;;15.86;68.85
77159;BME280;66129;45.890;13.714;2023-11-19T12:24:21;101266.34;;;15.92;67.49
77159;BME280;66129;45.890;13.714;2023-11-19T12:26:49;101262.91;;;15.93;65.04
77159;BME280;66129;45.890;13.714;2023-11-19T12:29:17;101291.50;;;16.20;65.33
77159;BME280;66129;45.890;13.714;2023-11-19T12:31:53;101287.94;;;16.00;58.43
77159;BME280;66129;45.890;13.714;2023-11-19T12:34:22;101255.91;;;15.78;61.22
77159;BME280;66129;45.890;13.714;2023-11-19T12:36:48;101278.31;;;15.76;65.64
77159;BME280;66129;45.890;13.714;2023-11-19T12:39:14;101266.16;;;15.59;58.53
77159;BME280;66129;45.890;13.714;2023-11-19T12:41:54;101254.94;;;15.60;59.46
77159;BME280;66129;45.890;13.714;2023-11-19T12:44:55;101292.13;;;15.81;62.42
77159;BME280;66129;45.890;13.714;2023-11-19T12:47:49;101288.59;;;15.67;51.20
77159;BME280;66129;45.890;13.714;2023-11-19T12:51:11;101276.31;;;15.38;52.25
77159;BME280;66129;45.890;13.714;2023-11-19T12:53:26;101239.09;;;15.20;56.52
77159;BME280;66129;45.890;13.714;2023-11-19T12:55:53;101230.47;;;15.21;57.08
77159;BME280;66129;45.890;13.714;2023-11-19T12:58:54;101251.09;;;15.15;57.30
77159;BME280;66129;45.890;13.714;2023-11-19T13:01:22;101241.59;;;15.12;57.89
77159;BME280;66129;45.890;13.714;2023-11-19T13:03:48;101235.47;;;14.98;58.70
77159;BME280;66129;45.890;13.714;2023-11-19T13:06:14;101260.53;;;15.11;59.92
77159;BME280;66129;45.890;13.714;2023-11-19T13:08:50;101249.97;;;14.87;61.55
77159;BME280;66129;45.890;13.714;2023-11-19T13:11:35;101247.97;;;14.59;62.66
77159;BME280;66129;45.890;13.714;2023-11-19T13:14:06;101258.22;;;14.52;62.63
77159;BME280;66129;45.890;13.714;2023-11-19T13:16:37;101261.56;;;14.45;59.15
77159;BME280;66129;45.890;13.714;2023-11-19T13:19:03;101247.66;;;14.34;61.91